createdAt,value
2018-02-02T00:00:36.490Z,99192.97
2018-02-02T00:01:48.420Z,99192.42
2018-02-02T00:02:54.536Z,99197.62
2018-02-02T00:04:00.955Z,99193.59
2018-02-02T00:05:09.106Z,99197.94
2018-02-02T00:06:15.261Z,99192.76
2018-02-02T00:07:21.352Z,99196.44
2018-02-02T00:08:27.275Z,99197.72
2018-02-02T00:09:33.418Z,99201.53
2018-02-02T00:10:39.567Z,99199.47
2018-02-02T00:11:45.699Z,99200.44
2018-02-02T00:12:51.802Z,99200.41
2018-02-02T00:13:57.921Z,99201.58
2018-02-02T00:15:05.029Z,99205.19
2018-02-02T00:16:11.712Z,99209.17
2018-02-02T00:17:17.792Z,99203.98
2018-02-02T00:18:23.972Z,99202.04
2018-02-02T00:19:30.161Z,99206.15
2018-02-02T00:20:36.294Z,99205.47
2018-02-02T00:21:42.452Z,99202.29
2018-02-02T00:22:48.597Z,99199.60
2018-02-02T00:23:54.776Z,99202.59
2018-02-02T00:25:00.935Z,99203.55
2018-02-02T00:26:07.079Z,99206.03
2018-02-02T00:27:13.373Z,99200.36
2018-02-02T00:28:19.505Z,99206.05
2018-02-02T00:29:25.651Z,99209.61
2018-02-02T00:30:31.819Z,99208.56
2018-02-02T00:31:37.298Z,99211.98
2018-02-02T00:32:43.479Z,99213.31
2018-02-02T00:33:49.816Z,99209.95
2018-02-02T00:34:55.981Z,99205.70
2018-02-02T00:36:02.133Z,99206.66
2018-02-02T00:37:08.309Z,99203.03
2018-02-02T00:38:14.455Z,99201.72
2018-02-02T00:39:20.558Z,99207.91
2018-02-02T00:40:27.566Z,99203.02
2018-02-02T00:41:33.702Z,99213.05
2018-02-02T00:42:45.113Z,99202.61
2018-02-02T00:43:51.244Z,99202.73
2018-02-02T00:44:59.716Z,99206.52
2018-02-02T00:46:06.657Z,99206.58
2018-02-02T00:47:12.560Z,99220.91
2018-02-02T00:48:18.717Z,99210.36
2018-02-02T00:49:24.858Z,99208.98
2018-02-02T00:50:36.158Z,99211.22
2018-02-02T00:51:47.660Z,99215.15
2018-02-02T00:52:53.787Z,99214.58
2018-02-02T00:53:59.951Z,99217.52
2018-02-02T00:55:06.117Z,99221.79
2018-02-02T00:56:12.090Z,99221.41
2018-02-02T00:57:18.228Z,99224.91
2018-02-02T00:58:24.168Z,99231.73
2018-02-02T00:59:30.373Z,99226.33
2018-02-02T01:00:36.536Z,99225.16
2018-02-02T01:01:42.707Z,99235.55
2018-02-02T01:02:49.750Z,99231.05
2018-02-02T01:03:55.891Z,99229.44
2018-02-02T01:05:02.512Z,99231.28
2018-02-02T01:06:08.662Z,99233.02
2018-02-02T01:07:19.792Z,99235.59
2018-02-02T01:08:25.926Z,99230.23
2018-02-02T01:09:32.012Z,99230.88
2018-02-02T01:10:38.228Z,99230.41
2018-02-02T01:11:44.364Z,99234.09
2018-02-02T01:12:50.460Z,99234.94
2018-02-02T01:13:56.644Z,99235.91
2018-02-02T01:15:02.815Z,99232.80
2018-02-02T01:16:08.996Z,99235.50
2018-02-02T01:17:15.173Z,99234.53
2018-02-02T01:18:21.587Z,99233.73
2018-02-02T01:19:28.150Z,99229.84
2018-02-02T01:20:34.287Z,99224.23
2018-02-02T01:21:40.135Z,99229.89
2018-02-02T01:22:46.330Z,99231.05
2018-02-02T01:23:52.484Z,99234.41
2018-02-02T01:24:58.665Z,99231.28
2018-02-02T01:26:04.853Z,99227.00
2018-02-02T01:27:11.867Z,99232.14
2018-02-02T01:28:17.984Z,99235.27
2018-02-02T01:29:24.092Z,99233.48
2018-02-02T01:30:30.281Z,99236.79
2018-02-02T01:31:36.448Z,99235.97
2018-02-02T01:32:42.568Z,99237.66
2018-02-02T01:33:48.960Z,99237.86
2018-02-02T01:34:55.093Z,99236.84
2018-02-02T01:36:01.299Z,99236.53
2018-02-02T01:37:07.420Z,99236.36
2018-02-02T01:38:13.709Z,99238.27
2018-02-02T01:39:19.841Z,99225.98
2018-02-02T01:40:26.040Z,99237.64
2018-02-02T01:41:32.211Z,99230.63
2018-02-02T01:42:38.049Z,99246.98
2018-02-02T01:43:44.200Z,99244.20
2018-02-02T01:44:50.333Z,99244.97
2018-02-02T01:46:00.808Z,99245.93
2018-02-02T01:47:07.192Z,99251.52
2018-02-02T01:48:21.240Z,99247.55
2018-02-02T01:49:27.426Z,99245.32
2018-02-02T01:50:33.554Z,99250.01
2018-02-02T01:51:39.684Z,99247.60
2018-02-02T01:52:45.811Z,99246.94
2018-02-02T01:53:51.958Z,99244.12
2018-02-02T01:54:58.131Z,99247.57
2018-02-02T01:56:03.726Z,99249.28
2018-02-02T01:57:09.915Z,99248.85
2018-02-02T01:58:16.058Z,99253.70
2018-02-02T01:59:22.172Z,99253.28
2018-02-02T02:00:28.280Z,99251.09
2018-02-02T02:01:33.173Z,99257.20
2018-02-02T02:02:39.033Z,99262.55
2018-02-02T02:03:45.240Z,99256.84
2018-02-02T02:04:56.464Z,99255.60
2018-02-02T02:06:02.628Z,99253.47
2018-02-02T02:07:08.769Z,99256.13
2018-02-02T02:08:14.925Z,99250.25
2018-02-02T02:09:21.045Z,99256.00
2018-02-02T02:10:26.940Z,99248.12
2018-02-02T02:11:33.108Z,99247.23
2018-02-02T02:12:39.236Z,99250.28
2018-02-02T02:13:45.374Z,99249.30
2018-02-02T02:14:51.511Z,99245.92
2018-02-02T02:15:57.370Z,99249.84
2018-02-02T02:17:03.531Z,99244.42
2018-02-02T02:18:09.429Z,99241.81
2018-02-02T02:19:15.533Z,99243.66
2018-02-02T02:20:21.668Z,99246.66
2018-02-02T02:21:27.852Z,99242.10
2018-02-02T02:22:33.762Z,99246.11
2018-02-02T02:23:39.906Z,99244.89
2018-02-02T02:24:46.018Z,99243.94
2018-02-02T02:25:52.125Z,99244.92
2018-02-02T02:26:58.316Z,99243.19
2018-02-02T02:28:04.448Z,99241.65
2018-02-02T02:29:10.540Z,99243.03
2018-02-02T02:30:16.665Z,99239.91
2018-02-02T02:31:23.053Z,99235.41
2018-02-02T02:32:29.488Z,99233.91
2018-02-02T02:33:35.630Z,99241.06
2018-02-02T02:34:41.736Z,99234.09
2018-02-02T02:35:47.868Z,99233.64
2018-02-02T02:36:54.033Z,99226.22
2018-02-02T02:38:00.236Z,99235.15
2018-02-02T02:39:06.361Z,99232.70
2018-02-02T02:40:12.533Z,99231.58
2018-02-02T02:41:18.747Z,99232.33
2018-02-02T02:42:24.877Z,99234.72
2018-02-02T02:43:31.004Z,99231.40
2018-02-02T02:44:41.130Z,99236.15
2018-02-02T02:45:47.374Z,99238.56
2018-02-02T02:46:53.577Z,99237.37
2018-02-02T02:47:59.709Z,99239.69
2018-02-02T02:49:05.847Z,99233.14
2018-02-02T02:50:12.019Z,99241.69
2018-02-02T02:51:18.165Z,99236.00
2018-02-02T02:52:24.321Z,99240.27
2018-02-02T02:53:33.148Z,99240.61
2018-02-02T02:54:39.279Z,99238.90
2018-02-02T02:55:45.483Z,99240.75
2018-02-02T02:56:51.631Z,99244.09
2018-02-02T02:57:57.838Z,99242.08
2018-02-02T02:59:03.947Z,99236.31
2018-02-02T03:00:09.781Z,99243.22
2018-02-02T03:01:15.969Z,99241.34
2018-02-02T03:02:23.212Z,99235.05
2018-02-02T03:03:30.307Z,99240.16
2018-02-02T03:04:36.180Z,99238.70
2018-02-02T03:05:42.336Z,99239.56
2018-02-02T03:06:48.526Z,99235.92
2018-02-02T03:07:54.685Z,99237.56
2018-02-02T03:09:00.836Z,99236.58
2018-02-02T03:10:07.564Z,99228.69
2018-02-02T03:11:13.670Z,99231.25
2018-02-02T03:12:19.772Z,99231.79
2018-02-02T03:13:25.962Z,99232.50
2018-02-02T03:14:31.794Z,99229.97
2018-02-02T03:15:37.900Z,99231.78
2018-02-02T03:16:44.059Z,99232.00
2018-02-02T03:17:50.237Z,99227.36
2018-02-02T03:18:56.388Z,99237.48
2018-02-02T03:20:02.512Z,99234.36
2018-02-02T03:21:08.649Z,99237.24
2018-02-02T03:22:14.868Z,99231.29
2018-02-02T03:23:21.036Z,99238.24
2018-02-02T03:24:27.167Z,99238.44
2018-02-02T03:25:33.028Z,99237.74
2018-02-02T03:26:40.087Z,99233.46
2018-02-02T03:27:46.194Z,99235.07
2018-02-02T03:28:52.318Z,99238.00
2018-02-02T03:29:58.477Z,99241.85
2018-02-02T03:31:04.657Z,99240.37
2018-02-02T03:32:10.835Z,99242.84
2018-02-02T03:33:16.953Z,99244.16
2018-02-02T03:34:23.064Z,99245.44
2018-02-02T03:35:29.183Z,99237.90
2018-02-02T03:36:35.116Z,99243.08
2018-02-02T03:37:41.288Z,99241.22
2018-02-02T03:38:47.424Z,99238.27
2018-02-02T03:39:53.549Z,99248.20
2018-02-02T03:40:59.701Z,99244.20
2018-02-02T03:42:05.596Z,99238.30
2018-02-02T03:43:11.714Z,99242.14
2018-02-02T03:44:17.852Z,99236.63
2018-02-02T03:45:23.979Z,99238.37
2018-02-02T03:46:30.113Z,99241.36
2018-02-02T03:47:35.623Z,99242.78
2018-02-02T03:48:41.822Z,99239.50
2018-02-02T03:49:47.979Z,99238.04
2018-02-02T03:50:54.062Z,99237.69
2018-02-02T03:52:00.216Z,99241.48
2018-02-02T03:53:06.399Z,99238.64
2018-02-02T03:54:12.602Z,99243.31
2018-02-02T03:55:18.765Z,99239.14
2018-02-02T03:58:10.887Z,99240.94
2018-02-02T03:59:17.034Z,99241.70
2018-02-02T04:00:25.239Z,99245.62
2018-02-02T04:01:31.379Z,99249.45
2018-02-02T04:02:37.561Z,99246.82
2018-02-02T04:03:43.389Z,99244.58
2018-02-02T04:04:49.543Z,99244.33
2018-02-02T04:05:55.701Z,99244.81
2018-02-02T04:07:01.832Z,99239.14
2018-02-02T04:08:07.991Z,99246.37
2018-02-02T04:09:13.392Z,99244.28
2018-02-02T04:10:19.567Z,99248.97
2018-02-02T04:11:25.716Z,99251.80
2018-02-02T04:12:31.888Z,99254.29
2018-02-02T04:13:38.051Z,99258.78
2018-02-02T04:14:44.208Z,99252.84
2018-02-02T04:15:50.345Z,99256.74
2018-02-02T04:16:56.528Z,99259.20
2018-02-02T04:18:02.663Z,99258.34
2018-02-02T04:19:08.791Z,99257.92
2018-02-02T04:20:14.971Z,99254.48
2018-02-02T04:21:21.070Z,99247.50
2018-02-02T04:22:27.223Z,99254.61
2018-02-02T04:23:33.378Z,99252.67
2018-02-02T04:24:39.495Z,99251.62
2018-02-02T04:25:45.719Z,99251.12
2018-02-02T04:26:51.883Z,99257.52
2018-02-02T04:27:57.780Z,99256.27
2018-02-02T04:29:03.925Z,99249.21
2018-02-02T04:30:10.095Z,99251.06
2018-02-02T04:31:15.949Z,99246.66
2018-02-02T04:32:22.097Z,99250.12
2018-02-02T04:33:28.064Z,99254.51
2018-02-02T04:34:34.035Z,99256.63
2018-02-02T04:35:40.892Z,99260.09
2018-02-02T04:36:46.908Z,99257.14
2018-02-02T04:37:52.835Z,99262.36
2018-02-02T04:38:58.757Z,99262.70
2018-02-02T04:40:04.864Z,99255.98
2018-02-02T04:41:10.785Z,99257.72
2018-02-02T04:42:16.898Z,99259.83
2018-02-02T04:43:23.058Z,99260.53
2018-02-02T04:44:29.188Z,99256.23
2018-02-02T04:45:35.296Z,99260.19
2018-02-02T04:46:41.459Z,99261.42
2018-02-02T04:47:47.269Z,99258.81
2018-02-02T04:48:53.364Z,99262.19
2018-02-02T04:49:58.819Z,99260.01
2018-02-02T04:51:04.991Z,99261.72
2018-02-02T04:52:11.094Z,99259.68
2018-02-02T04:53:17.211Z,99265.20
2018-02-02T04:54:23.320Z,99260.88
2018-02-02T04:55:29.423Z,99255.69
2018-02-02T04:56:35.644Z,99264.22
2018-02-02T04:57:41.889Z,99257.85
2018-02-02T04:58:47.814Z,99253.48
2018-02-02T04:59:53.974Z,99260.28
2018-02-02T05:01:00.152Z,99257.37
2018-02-02T05:02:06.474Z,99260.27
2018-02-02T05:03:12.644Z,99256.98
2018-02-02T05:04:23.801Z,99259.76
2018-02-02T05:05:29.941Z,99259.32
2018-02-02T05:06:36.093Z,99260.61
2018-02-02T05:07:42.200Z,99255.44
2018-02-02T05:08:48.384Z,99252.97
2018-02-02T05:09:54.592Z,99248.63
2018-02-02T05:11:00.724Z,99257.16
2018-02-02T05:12:06.627Z,99262.70
2018-02-02T05:13:12.729Z,99262.17
2018-02-02T05:14:18.836Z,99257.09
2018-02-02T05:15:24.959Z,99256.31
2018-02-02T05:16:31.119Z,99256.25
2018-02-02T05:17:37.040Z,99249.05
2018-02-02T05:18:42.958Z,99255.69
2018-02-02T05:19:49.067Z,99253.66
2018-02-02T05:20:55.224Z,99254.67
2018-02-02T05:22:01.038Z,99253.28
2018-02-02T05:23:07.181Z,99254.44
2018-02-02T05:24:13.316Z,99253.54
2018-02-02T05:25:19.530Z,99247.63
2018-02-02T05:26:25.636Z,99252.42
2018-02-02T05:27:31.813Z,99245.87
2018-02-02T05:28:37.986Z,99248.92
2018-02-02T05:29:44.166Z,99244.33
2018-02-02T05:30:49.625Z,99247.62
2018-02-02T05:31:55.767Z,99246.94
2018-02-02T05:33:01.930Z,99247.97
2018-02-02T05:34:08.078Z,99252.42
2018-02-02T05:35:14.295Z,99250.72
2018-02-02T05:36:19.817Z,99251.54
2018-02-02T05:37:26.061Z,99253.13
2018-02-02T05:38:32.232Z,99252.66
2018-02-02T05:39:38.374Z,99259.50
2018-02-02T05:40:44.479Z,99257.56
2018-02-02T05:41:50.618Z,99261.55
2018-02-02T05:42:56.788Z,99259.02
2018-02-02T05:44:02.911Z,99260.56
2018-02-02T05:45:09.161Z,99258.91
2018-02-02T05:46:15.360Z,99263.77
2018-02-02T05:47:21.603Z,99258.59
2018-02-02T05:48:27.767Z,99256.70
2018-02-02T05:49:33.920Z,99266.09
2018-02-02T05:50:40.184Z,99250.92
2018-02-02T05:51:46.289Z,99263.55
2018-02-02T05:52:52.457Z,99254.92
2018-02-02T05:53:58.578Z,99256.89
2018-02-02T05:55:04.387Z,99264.50
2018-02-02T05:56:10.559Z,99256.13
2018-02-02T05:57:16.814Z,99262.75
2018-02-02T05:58:23.848Z,99263.69
2018-02-02T05:59:30.024Z,99269.02
2018-02-02T06:00:36.135Z,99259.14
2018-02-02T06:01:42.273Z,99263.34
2018-02-02T06:02:48.452Z,99267.94
2018-02-02T06:03:54.627Z,99265.36
2018-02-02T06:05:01.038Z,99267.08
2018-02-02T06:06:07.201Z,99272.28
2018-02-02T06:07:13.326Z,99265.94
2018-02-02T06:08:19.413Z,99272.53
2018-02-02T06:09:25.538Z,99263.76
2018-02-02T06:10:31.684Z,99265.56
2018-02-02T06:11:37.838Z,99265.30
2018-02-02T06:12:43.932Z,99268.30
2018-02-02T06:13:50.320Z,99264.30
2018-02-02T06:14:56.517Z,99271.70
2018-02-02T06:16:02.631Z,99262.32
2018-02-02T06:17:08.882Z,99265.16
2018-02-02T06:18:15.017Z,99268.85
2018-02-02T06:19:32.213Z,99262.75
2018-02-02T06:20:38.029Z,99262.27
2018-02-02T06:21:43.915Z,99259.53
2018-02-02T06:22:50.053Z,99257.24
2018-02-02T06:23:56.237Z,99261.96
2018-02-02T06:25:02.362Z,99262.40
2018-02-02T06:26:08.532Z,99258.41
2018-02-02T06:27:14.698Z,99257.83
2018-02-02T06:28:20.818Z,99258.16
2018-02-02T06:29:26.987Z,99262.98
2018-02-02T06:30:33.097Z,99260.28
2018-02-02T06:31:39.276Z,99262.77
2018-02-02T06:32:45.421Z,99261.96
2018-02-02T06:33:51.614Z,99268.36
2018-02-02T06:34:57.743Z,99264.22
2018-02-02T06:36:03.830Z,99268.36
2018-02-02T06:37:10.001Z,99263.61
2018-02-02T06:38:15.530Z,99266.65
2018-02-02T06:39:21.660Z,99268.86
2018-02-02T06:40:27.773Z,99271.88
2018-02-02T06:41:33.892Z,99271.30
2018-02-02T06:42:39.983Z,99263.55
2018-02-02T06:43:46.142Z,99275.73
2018-02-02T06:44:52.317Z,99268.77
2018-02-02T06:45:58.539Z,99268.28
2018-02-02T06:47:04.716Z,99269.11
2018-02-02T06:48:10.908Z,99273.41
2018-02-02T06:49:17.087Z,99268.77
2018-02-02T06:50:22.978Z,99268.34
2018-02-02T06:51:29.127Z,99266.87
2018-02-02T06:52:35.261Z,99269.39
2018-02-02T06:53:43.470Z,99269.91
2018-02-02T06:54:49.664Z,99271.56
2018-02-02T06:55:58.683Z,99272.62
2018-02-02T06:57:04.795Z,99273.92
2018-02-02T06:58:10.639Z,99276.14
2018-02-02T06:59:16.767Z,99272.14
2018-02-02T07:00:23.172Z,99274.51
2018-02-02T07:01:29.385Z,99273.30
2018-02-02T07:02:35.539Z,99268.83
2018-02-02T07:03:41.471Z,99268.85
2018-02-02T07:04:47.761Z,99267.47
2018-02-02T07:05:53.527Z,99270.30
2018-02-02T07:07:00.437Z,99268.16
2018-02-02T07:08:06.586Z,99261.98
2018-02-02T07:09:12.719Z,99264.58
2018-02-02T07:10:19.806Z,99259.89
2018-02-02T07:11:25.967Z,99253.45
2018-02-02T07:12:33.441Z,99250.86
2018-02-02T07:13:40.935Z,99252.52
2018-02-02T07:14:49.337Z,99251.90
2018-02-02T07:15:55.695Z,99250.18
2018-02-02T07:17:02.180Z,99248.05
2018-02-02T07:18:08.724Z,99242.33
2018-02-02T07:19:15.459Z,99248.27
2018-02-02T07:20:22.074Z,99252.42
2018-02-02T07:21:29.364Z,99257.42
2018-02-02T07:22:36.248Z,99260.73
2018-02-02T07:23:44.393Z,99264.56
2018-02-02T07:24:51.475Z,99263.61
2018-02-02T07:25:58.186Z,99262.95
2018-02-02T07:27:04.929Z,99279.66
2018-02-02T07:28:12.661Z,99279.73
2018-02-02T07:29:18.875Z,99287.77
2018-02-02T07:30:28.998Z,99285.72
2018-02-02T07:31:35.200Z,99290.02
2018-02-02T07:32:41.382Z,99287.06
2018-02-02T07:33:48.281Z,99284.39
2018-02-02T07:34:55.791Z,99286.13
2018-02-02T07:36:03.186Z,99285.64
2018-02-02T07:37:10.065Z,99282.77
2018-02-02T07:38:17.409Z,99282.33
2018-02-02T07:39:24.574Z,99283.38
2018-02-02T07:40:30.668Z,99282.23
2018-02-02T07:41:38.889Z,99281.73
2018-02-02T07:42:45.622Z,99284.76
2018-02-02T07:43:53.671Z,99281.14
2018-02-02T07:45:01.148Z,99285.00
2018-02-02T07:46:07.816Z,99284.56
2018-02-02T07:47:15.079Z,99275.84
2018-02-02T07:48:23.125Z,99276.63
2018-02-02T07:49:31.390Z,99281.64
2018-02-02T07:50:39.855Z,99285.08
2018-02-02T07:51:46.565Z,99288.36
2018-02-02T07:52:52.494Z,99290.95
2018-02-02T07:53:58.972Z,99291.30
2018-02-02T07:55:05.128Z,99286.55
2018-02-02T07:56:12.862Z,99292.48
2018-02-02T07:57:19.865Z,99290.25
2018-02-02T07:58:27.141Z,99290.99
2018-02-02T07:59:34.832Z,99284.45
2018-02-02T08:00:47.112Z,99286.81
2018-02-02T08:01:54.064Z,99289.55
2018-02-02T08:03:01.180Z,99289.91
2018-02-02T08:04:08.098Z,99287.11
2018-02-02T08:05:16.923Z,99288.15
2018-02-02T08:06:23.656Z,99289.02
2018-02-02T08:07:31.715Z,99291.80
2018-02-02T08:08:38.463Z,99287.52
2018-02-02T08:09:45.987Z,99286.77
2018-02-02T08:10:53.670Z,99286.31
2018-02-02T08:12:00.250Z,99288.10
2018-02-02T08:13:07.631Z,99286.34
2018-02-02T08:14:14.788Z,99288.86
2018-02-02T08:15:20.706Z,99284.89
2018-02-02T08:16:27.318Z,99289.25
2018-02-02T08:17:35.040Z,99286.25
2018-02-02T08:18:41.811Z,99286.33
2018-02-02T08:19:48.738Z,99285.17
2018-02-02T08:20:56.148Z,99286.16
2018-02-02T08:22:03.317Z,99279.38
2018-02-02T08:23:11.594Z,99283.38
2018-02-02T08:24:19.665Z,99282.73
2018-02-02T08:25:26.667Z,99284.33
2018-02-02T08:26:33.954Z,99279.08
2018-02-02T08:27:41.162Z,99268.45
2018-02-02T08:28:48.079Z,99274.97
2018-02-02T08:30:03.271Z,99279.25
2018-02-02T08:31:10.210Z,99274.37
2018-02-02T08:32:16.971Z,99274.91
2018-02-02T08:33:24.420Z,99279.80
2018-02-02T08:34:31.390Z,99269.51
2018-02-02T08:35:38.956Z,99273.34
2018-02-02T08:36:50.979Z,99272.54
2018-02-02T08:37:58.257Z,99270.67
2018-02-02T08:39:03.535Z,99260.80
2018-02-02T08:40:17.605Z,99265.52
2018-02-02T08:41:26.025Z,99269.92
2018-02-02T08:42:33.512Z,99269.05
2018-02-02T08:43:41.080Z,99268.31
2018-02-02T08:44:48.422Z,99272.72
2018-02-02T08:45:59.090Z,99267.94
2018-02-02T08:47:06.223Z,99271.23
2018-02-02T08:48:15.207Z,99269.45
2018-02-02T08:49:22.436Z,99271.83
2018-02-02T08:50:29.296Z,99269.44
2018-02-02T08:51:36.325Z,99271.69
2018-02-02T08:52:43.075Z,99270.50
2018-02-02T08:53:50.708Z,99274.78
2018-02-02T08:54:57.664Z,99274.52
2018-02-02T08:56:04.652Z,99278.01
2018-02-02T08:57:11.697Z,99275.39
2018-02-02T08:58:18.620Z,99282.76
2018-02-02T08:59:25.392Z,99273.57
2018-02-02T09:00:31.409Z,99275.94
2018-02-02T09:01:43.549Z,99275.76
2018-02-02T09:02:50.779Z,99277.91
2018-02-02T09:03:58.234Z,99275.91
2018-02-02T09:05:05.591Z,99274.97
2018-02-02T09:06:12.090Z,99274.23
2018-02-02T09:07:18.155Z,99270.42
2018-02-02T09:08:25.549Z,99274.33
2018-02-02T09:09:31.806Z,99272.66
2018-02-02T09:10:38.048Z,99263.97
2018-02-02T09:11:45.315Z,99267.19
2018-02-02T09:12:53.111Z,99272.83
2018-02-02T09:14:00.012Z,99265.80
2018-02-02T09:15:06.707Z,99267.48
2018-02-02T09:16:14.127Z,99270.20
2018-02-02T09:17:21.466Z,99265.44
2018-02-02T09:18:28.879Z,99270.47
2018-02-02T09:19:36.924Z,99264.14
2018-02-02T09:20:44.202Z,99268.87
2018-02-02T09:21:54.053Z,99267.79
2018-02-02T09:23:00.269Z,99265.62
2018-02-02T09:24:07.165Z,99267.80
2018-02-02T09:25:14.638Z,99267.96
2018-02-02T09:26:21.309Z,99268.14
2018-02-02T09:27:27.111Z,99271.91
2018-02-02T09:28:33.362Z,99276.54
2018-02-02T09:29:39.545Z,99267.59
2018-02-02T09:30:45.768Z,99273.17
2018-02-02T09:31:51.897Z,99261.22
2018-02-02T09:32:58.077Z,99268.16
2018-02-02T09:34:07.209Z,99266.90
2018-02-02T09:35:13.412Z,99264.14
2018-02-02T09:36:19.610Z,99257.67
2018-02-02T09:37:25.802Z,99259.67
2018-02-02T09:38:31.697Z,99255.45
2018-02-02T09:39:37.812Z,99249.73
2018-02-02T09:40:43.967Z,99247.21
2018-02-02T09:41:50.127Z,99248.34
2018-02-02T09:42:56.187Z,99250.41
2018-02-02T09:44:03.268Z,99247.86
2018-02-02T09:45:11.134Z,99251.14
2018-02-02T09:46:18.879Z,99244.89
2018-02-02T09:47:26.767Z,99247.02
2018-02-02T09:48:34.345Z,99249.47
2018-02-02T09:49:41.242Z,99248.70
2018-02-02T09:50:48.423Z,99252.58
2018-02-02T09:51:55.181Z,99249.48
2018-02-02T09:53:02.799Z,99255.70
2018-02-02T09:54:09.495Z,99254.70
2018-02-02T09:55:16.559Z,99256.40
2018-02-02T09:56:23.403Z,99258.25
2018-02-02T09:57:30.659Z,99261.36
2018-02-02T09:58:40.058Z,99261.39
2018-02-02T09:59:46.310Z,99257.28
2018-02-02T10:00:51.546Z,99260.41
2018-02-02T10:01:58.561Z,99257.55
2018-02-02T10:03:07.670Z,99252.80
2018-02-02T10:04:16.857Z,99258.44
2018-02-02T10:05:25.877Z,99258.49
2018-02-02T10:06:34.106Z,99255.34
2018-02-02T10:07:41.542Z,99260.20
2018-02-02T10:08:48.297Z,99261.30
2018-02-02T10:09:55.446Z,99247.47
2018-02-02T10:11:03.682Z,99254.19
2018-02-02T10:12:10.769Z,99253.50
2018-02-02T10:13:18.399Z,99255.30
2018-02-02T10:14:27.324Z,99263.95
2018-02-02T10:15:34.559Z,99257.02
2018-02-02T10:16:42.597Z,99261.44
2018-02-02T10:17:49.617Z,99252.95
2018-02-02T10:18:56.817Z,99257.45
2018-02-02T10:20:03.666Z,99256.81
2018-02-02T10:21:11.752Z,99260.23
2018-02-02T10:22:18.421Z,99258.44
2018-02-02T10:23:25.236Z,99261.55
2018-02-02T10:24:33.587Z,99264.09
2018-02-02T10:25:40.934Z,99261.16
2018-02-02T10:26:49.621Z,99256.79
2018-02-02T10:27:55.850Z,99259.44
2018-02-02T10:29:02.016Z,99254.92
2018-02-02T10:30:08.277Z,99260.48
2018-02-02T10:31:15.204Z,99260.75
2018-02-02T10:32:26.265Z,99249.61
2018-02-02T10:33:33.925Z,99250.31
2018-02-02T10:34:40.832Z,99245.74
2018-02-02T10:35:49.175Z,99249.56
2018-02-02T10:36:56.894Z,99246.66
2018-02-02T10:38:03.907Z,99254.70
2018-02-02T10:39:11.160Z,99258.14
2018-02-02T10:40:18.302Z,99262.65
2018-02-02T10:41:25.840Z,99257.88
2018-02-02T10:42:32.243Z,99250.02
2018-02-02T10:43:39.224Z,99253.73
2018-02-02T10:44:46.721Z,99250.30
2018-02-02T10:45:54.955Z,99252.55
2018-02-02T10:47:01.786Z,99252.45
2018-02-02T10:48:08.655Z,99251.47
2018-02-02T10:49:14.845Z,99251.33
2018-02-02T10:50:21.934Z,99247.13
2018-02-02T10:51:30.059Z,99248.88
2018-02-02T10:52:37.594Z,99246.22
2018-02-02T10:53:45.101Z,99252.02
2018-02-02T10:54:51.507Z,99232.58
2018-02-02T10:55:58.863Z,99240.59
2018-02-02T10:57:06.319Z,99246.87
2018-02-02T10:58:14.202Z,99239.02
2018-02-02T10:59:21.811Z,99241.02
2018-02-02T11:02:19.792Z,99243.92
2018-02-02T11:14:10.761Z,99233.72
2018-02-02T11:15:17.508Z,99234.61
2018-02-02T11:16:23.755Z,99227.16
2018-02-02T11:17:43.093Z,99239.39
2018-02-02T11:18:49.407Z,99232.11
2018-02-02T11:19:55.738Z,99219.84
2018-02-02T11:21:01.988Z,99226.69
2018-02-02T11:22:08.151Z,99224.06
2018-02-02T11:23:14.379Z,99227.39
2018-02-02T11:24:20.524Z,99226.44
2018-02-02T11:25:26.696Z,99222.24
2018-02-02T11:26:32.889Z,99224.84
2018-02-02T11:27:39.118Z,99224.23
2018-02-02T11:28:44.996Z,99219.70
2018-02-02T11:29:51.183Z,99224.17
2018-02-02T11:30:57.311Z,99219.60
2018-02-02T11:32:03.494Z,99219.20
2018-02-02T11:33:09.672Z,99219.70
2018-02-02T11:34:15.888Z,99216.11
2018-02-02T11:35:22.023Z,99213.72
2018-02-02T11:36:28.200Z,99216.09
2018-02-02T11:37:34.385Z,99213.61
2018-02-02T11:38:40.564Z,99214.32
2018-02-02T11:39:46.764Z,99217.69
2018-02-02T11:40:52.960Z,99216.47
2018-02-02T11:41:59.152Z,99220.33
2018-02-02T11:43:05.032Z,99216.13
2018-02-02T11:44:11.536Z,99218.09
2018-02-02T11:45:17.813Z,99215.45
2018-02-02T11:46:24.174Z,99220.70
2018-02-02T11:47:30.397Z,99221.17
2018-02-02T11:48:36.581Z,99218.59
2018-02-02T11:49:42.771Z,99220.90
2018-02-02T11:50:48.944Z,99220.70
2018-02-02T11:51:54.828Z,99210.65
2018-02-02T11:53:00.707Z,99214.64
2018-02-02T11:54:06.992Z,99217.77
2018-02-02T11:55:13.220Z,99218.14
2018-02-02T11:56:19.504Z,99222.80
2018-02-02T11:57:25.679Z,99217.02
2018-02-02T11:58:32.372Z,99221.02
2018-02-02T11:59:39.619Z,99227.37
2018-02-02T12:00:46.525Z,99228.30
2018-02-02T12:01:54.766Z,99227.24
2018-02-02T12:03:01.411Z,99235.53
2018-02-02T12:04:08.420Z,99231.91
2018-02-02T12:05:15.493Z,99230.78
2018-02-02T12:06:23.298Z,99228.27
2018-02-02T12:07:29.860Z,99226.68
2018-02-02T12:08:36.769Z,99230.13
2018-02-02T12:09:44.086Z,99234.01
2018-02-02T12:10:51.757Z,99228.64
2018-02-02T12:11:58.344Z,99233.89
2018-02-02T12:13:05.396Z,99232.42
2018-02-02T12:14:12.653Z,99234.88
2018-02-02T12:15:19.417Z,99229.54
2018-02-02T12:16:25.881Z,99230.58
2018-02-02T12:17:32.008Z,99229.80
2018-02-02T12:18:39.352Z,99234.13
2018-02-02T12:19:47.148Z,99234.44
2018-02-02T12:20:53.926Z,99235.48
2018-02-02T12:22:06.788Z,99241.58
2018-02-02T12:23:17.888Z,99242.96
2018-02-02T12:24:35.908Z,99241.42
2018-02-02T12:27:19.072Z,99240.27
2018-02-02T12:28:36.709Z,99238.61
2018-02-02T12:29:47.771Z,99242.39
2018-02-02T12:30:57.792Z,99241.36
2018-02-02T12:32:04.087Z,99242.83
2018-02-02T12:34:51.009Z,99242.25
2018-02-02T12:36:04.920Z,99243.16
2018-02-02T12:37:12.129Z,99238.57
2018-02-02T12:38:18.823Z,99234.23
2018-02-02T12:39:25.041Z,99243.73
2018-02-02T12:40:31.634Z,99238.53
2018-02-02T12:41:39.522Z,99232.94
2018-02-02T12:42:47.053Z,99235.30
2018-02-02T12:43:54.865Z,99233.77
2018-02-02T12:45:02.441Z,99231.04
2018-02-02T12:46:10.053Z,99229.88
2018-02-02T12:47:17.290Z,99225.65
2018-02-02T12:48:34.964Z,99227.56
2018-02-02T12:51:22.729Z,99220.55
2018-02-02T12:52:30.015Z,99222.12
2018-02-02T12:53:38.121Z,99216.72
2018-02-02T12:54:46.049Z,99224.14
2018-02-02T12:55:53.197Z,99223.64
2018-02-02T12:57:00.889Z,99222.69
2018-02-02T12:58:08.830Z,99220.82
2018-02-02T12:59:15.963Z,99218.58
2018-02-02T13:00:22.694Z,99219.84
2018-02-02T13:01:29.559Z,99216.27
2018-02-02T13:02:37.382Z,99220.39
2018-02-02T13:03:45.317Z,99214.42
2018-02-02T13:04:52.003Z,99220.64
2018-02-02T13:05:58.243Z,99216.92
2018-02-02T13:07:08.310Z,99223.52
2018-02-02T13:08:14.512Z,99218.50
2018-02-02T13:09:20.720Z,99218.97
2018-02-02T13:10:26.991Z,99219.52
2018-02-02T13:11:33.159Z,99215.72
2018-02-02T13:12:39.339Z,99218.30
2018-02-02T13:13:45.497Z,99210.42
2018-02-02T13:14:51.717Z,99214.70
2018-02-02T13:15:57.924Z,99219.09
2018-02-02T13:17:04.094Z,99217.17
2018-02-02T13:18:11.072Z,99212.92
2018-02-02T13:19:17.271Z,99214.88
2018-02-02T13:20:23.611Z,99215.69
2018-02-02T13:21:30.482Z,99219.66
2018-02-02T13:22:36.649Z,99214.48
2018-02-02T13:23:42.869Z,99211.73